createdAt,value
2022-08-02T00:02:17.417Z,70.32
2022-08-02T00:04:45.467Z,70.76
2022-08-02T00:07:13.980Z,70.17
2022-08-02T00:09:43.720Z,70.90
2022-08-02T00:12:12.599Z,71.65
2022-08-02T00:14:40.919Z,71.51
2022-08-02T00:17:09.224Z,71.58
2022-08-02T00:19:37.339Z,70.51
2022-08-02T00:22:05.450Z,71.06
2022-08-02T00:24:33.538Z,70.74
2022-08-02T00:27:05.036Z,70.42
2022-08-02T00:29:52.178Z,70.04
2022-08-02T00:32:22.448Z,72.44
2022-08-02T00:34:50.593Z,73.05
2022-08-02T00:37:18.794Z,71.73
2022-08-02T00:39:46.879Z,73.53
2022-08-02T00:42:16.649Z,72.79
2022-08-02T00:44:44.731Z,71.92
2022-08-02T00:47:19.068Z,72.64
2022-08-02T00:49:48.055Z,72.79
2022-08-02T00:52:16.323Z,72.56
2022-08-02T00:54:44.451Z,72.51
2022-08-02T00:57:12.582Z,72.45
2022-08-02T00:59:42.388Z,72.33
2022-08-02T01:02:11.137Z,72.65
2022-08-02T01:04:39.454Z,72.81
2022-08-02T01:07:12.558Z,72.95
2022-08-02T01:09:42.743Z,72.20
2022-08-02T01:12:11.953Z,73.43
2022-08-02T01:14:42.045Z,72.83
2022-08-02T01:17:13.707Z,72.48
2022-08-02T01:19:45.121Z,72.65
2022-08-02T01:22:30.380Z,72.70
2022-08-02T01:25:19.960Z,72.64
2022-08-02T01:27:58.545Z,72.33
2022-08-02T01:30:28.285Z,71.32
2022-08-02T01:33:00.099Z,72.21
2022-08-02T01:35:47.170Z,72.37
2022-08-02T01:38:25.314Z,70.84
2022-08-02T01:40:54.969Z,70.49
2022-08-02T01:43:24.022Z,70.49
2022-08-02T01:45:54.405Z,70.24
2022-08-02T01:48:23.111Z,69.65
2022-08-02T01:50:52.225Z,70.38
2022-08-02T01:53:21.859Z,70.06
2022-08-02T01:55:58.340Z,69.63
2022-08-02T01:58:29.289Z,69.67
2022-08-02T02:00:59.752Z,70.43
2022-08-02T02:03:29.268Z,69.94
2022-08-02T02:05:59.097Z,70.91
2022-08-02T02:08:29.455Z,70.72
2022-08-02T02:12:14.113Z,69.64
2022-08-02T02:13:46.687Z,70.02
2022-08-02T02:16:17.070Z,70.93
2022-08-02T02:18:46.453Z,70.43
2022-08-02T02:21:16.788Z,71.03
2022-08-02T02:23:44.944Z,71.20
2022-08-02T02:26:16.840Z,71.30
2022-08-02T02:28:49.317Z,71.03
2022-08-02T02:31:20.275Z,71.66
2022-08-02T02:34:14.692Z,71.23
2022-08-02T02:36:46.420Z,71.59
2022-08-02T02:39:15.956Z,72.03
2022-08-02T02:41:44.846Z,71.84
2022-08-02T02:44:18.048Z,72.10
2022-08-02T02:46:51.440Z,72.01
2022-08-02T02:49:21.230Z,72.06
2022-08-02T02:51:49.699Z,72.12
2022-08-02T02:54:33.065Z,72.29
2022-08-02T02:57:32.303Z,71.43
2022-08-02T03:00:00.651Z,70.81
2022-08-02T03:02:30.231Z,70.31
2022-08-02T03:05:02.728Z,70.86
2022-08-02T03:07:31.097Z,71.55
2022-08-02T03:09:59.711Z,71.79
2022-08-02T03:12:31.920Z,70.74
2022-08-02T03:15:01.744Z,72.16
2022-08-02T03:17:40.483Z,71.42
2022-08-02T03:20:11.737Z,70.97
2022-08-02T03:22:39.893Z,70.93
2022-08-02T03:25:09.589Z,71.06
2022-08-02T03:27:37.806Z,70.75
2022-08-02T03:30:08.202Z,71.21
2022-08-02T03:32:36.994Z,73.43
2022-08-02T03:35:08.497Z,74.81
2022-08-02T03:37:36.841Z,75.81
2022-08-02T03:40:08.268Z,76.44
2022-08-02T03:42:36.420Z,76.65
2022-08-02T03:45:08.783Z,77.51
2022-08-02T03:47:38.798Z,77.35
2022-08-02T03:50:10.563Z,76.25
2022-08-02T03:52:39.018Z,76.25
2022-08-02T03:55:07.741Z,77.00
2022-08-02T03:57:38.441Z,76.22
2022-08-02T04:00:07.603Z,74.88
2022-08-02T04:02:40.448Z,73.81
2022-08-02T04:05:10.356Z,75.20
2022-08-02T04:08:33.893Z,73.85
2022-08-02T04:10:27.313Z,75.60
2022-08-02T04:12:55.800Z,75.90
2022-08-02T04:15:24.809Z,76.80
2022-08-02T04:17:57.613Z,76.97
2022-08-02T04:20:29.496Z,77.08
2022-08-02T04:23:00.019Z,77.74
2022-08-02T04:25:35.402Z,76.78
2022-08-02T04:28:17.614Z,77.02
2022-08-02T04:30:47.643Z,77.96
2022-08-02T04:33:15.927Z,77.95
2022-08-02T04:35:46.205Z,77.19
2022-08-02T04:38:15.765Z,76.87
2022-08-02T04:40:51.906Z,76.78
2022-08-02T04:43:20.185Z,76.07
2022-08-02T04:45:48.762Z,77.10
2022-08-02T04:48:16.824Z,77.90
2022-08-02T04:50:46.243Z,75.60
2022-08-02T04:53:14.460Z,75.36
2022-08-02T04:55:42.539Z,74.97
2022-08-02T04:58:38.359Z,74.90
2022-08-02T05:00:58.720Z,74.57
2022-08-02T05:03:26.807Z,74.51
2022-08-02T05:05:56.346Z,74.60
2022-08-02T05:08:24.371Z,74.41
2022-08-02T05:10:52.470Z,74.01
2022-08-02T05:13:20.592Z,73.92
2022-08-02T05:15:50.054Z,73.98
2022-08-02T05:18:18.274Z,73.74
2022-08-02T05:20:46.421Z,74.29
2022-08-02T05:23:15.895Z,74.32
2022-08-02T05:25:43.980Z,74.25
2022-08-02T05:28:12.109Z,74.58
2022-08-02T05:30:40.527Z,74.46
2022-08-02T05:33:08.797Z,74.16
2022-08-02T05:35:36.990Z,74.27
2022-08-02T05:38:05.083Z,74.52
2022-08-02T05:40:54.256Z,74.57
2022-08-02T05:43:23.419Z,75.09
2022-08-02T05:45:54.506Z,75.14
2022-08-02T05:48:26.417Z,75.25
2022-08-02T05:51:02.678Z,75.16
2022-08-02T05:53:37.985Z,75.23
2022-08-02T05:56:13.954Z,75.37
2022-08-02T05:58:52.227Z,74.90
2022-08-02T06:01:24.952Z,75.00
2022-08-02T06:03:53.951Z,75.45
2022-08-02T06:06:23.391Z,75.71
2022-08-02T06:09:00.506Z,75.85
2022-08-02T06:11:36.764Z,75.77
2022-08-02T06:14:07.069Z,75.05
2022-08-02T06:16:41.884Z,75.71
2022-08-02T06:19:12.479Z,75.46
2022-08-02T06:22:32.746Z,74.92
2022-08-02T06:24:29.244Z,75.81
2022-08-02T06:26:58.983Z,75.91
2022-08-02T06:29:27.416Z,75.64
2022-08-02T06:31:55.483Z,75.41
2022-08-02T06:34:23.634Z,75.62
2022-08-02T06:36:56.625Z,75.34
2022-08-02T06:39:30.288Z,75.12
2022-08-02T06:42:00.569Z,75.48
2022-08-02T06:44:49.704Z,76.42
2022-08-02T06:47:19.405Z,75.89
2022-08-02T06:49:52.680Z,75.49
2022-08-02T06:52:28.234Z,75.84
2022-08-02T06:54:58.253Z,75.90
2022-08-02T06:57:27.824Z,75.26
2022-08-02T06:59:56.297Z,75.50
2022-08-02T07:02:24.355Z,76.06
2022-08-02T07:04:52.556Z,76.71
2022-08-02T07:07:20.707Z,76.30
2022-08-02T07:09:57.071Z,76.27
2022-08-02T07:12:34.788Z,75.88
2022-08-02T07:15:05.365Z,75.18
2022-08-02T07:17:34.055Z,74.86
2022-08-02T07:20:02.262Z,75.03
2022-08-02T07:22:30.621Z,75.53
2022-08-02T07:24:59.899Z,75.63
2022-08-02T07:27:28.398Z,74.99
2022-08-02T07:29:58.308Z,75.02
2022-08-02T07:32:29.644Z,74.38
2022-08-02T07:34:57.839Z,74.57
2022-08-02T07:37:54.176Z,74.12
2022-08-02T07:40:20.306Z,72.95
2022-08-02T07:42:49.477Z,73.13
2022-08-02T07:45:19.016Z,73.19
2022-08-02T07:47:47.289Z,73.22
2022-08-02T07:50:16.689Z,73.44
2022-08-02T07:52:45.708Z,73.26
2022-08-02T07:55:14.930Z,72.87
2022-08-02T07:57:46.358Z,70.64
2022-08-02T08:00:17.434Z,72.41
2022-08-02T08:02:47.693Z,72.56
2022-08-02T08:05:16.040Z,73.07
2022-08-02T08:07:44.223Z,73.32
2022-08-02T08:10:12.646Z,71.77
2022-08-02T08:12:40.699Z,72.75
2022-08-02T08:15:09.811Z,71.10
2022-08-02T08:17:38.615Z,68.86
2022-08-02T08:20:11.733Z,69.32
2022-08-02T08:22:42.194Z,69.86
2022-08-02T08:25:10.555Z,69.49
2022-08-02T08:27:39.084Z,68.69
2022-08-02T08:30:08.302Z,68.76
2022-08-02T08:32:36.354Z,68.75
2022-08-02T08:35:06.992Z,69.04
2022-08-02T08:37:37.026Z,68.71
2022-08-02T08:40:05.833Z,66.62
2022-08-02T08:42:34.332Z,67.10
2022-08-02T08:45:02.690Z,66.90
2022-08-02T08:47:35.920Z,65.82
2022-08-02T08:50:07.313Z,66.25
2022-08-02T08:52:38.402Z,66.55
2022-08-02T08:55:09.522Z,65.91
2022-08-02T08:57:41.688Z,66.28
2022-08-02T09:00:11.140Z,64.17
2022-08-02T09:02:39.497Z,64.58
2022-08-02T09:05:11.531Z,65.31
2022-08-02T09:07:42.777Z,64.85
2022-08-02T09:10:39.181Z,65.00
2022-08-02T09:13:30.829Z,64.37
2022-08-02T09:15:59.352Z,64.01
2022-08-02T09:18:47.733Z,63.63
2022-08-02T09:21:20.856Z,62.86
2022-08-02T09:23:51.794Z,63.10
2022-08-02T09:26:21.428Z,62.95
2022-08-02T09:28:51.563Z,63.15
2022-08-02T09:31:21.554Z,63.66
2022-08-02T09:33:54.543Z,61.46
2022-08-02T09:36:24.127Z,62.68
2022-08-02T09:39:01.497Z,62.89
2022-08-02T09:41:31.011Z,63.31
2022-08-02T09:44:04.346Z,62.54
2022-08-02T09:46:37.869Z,61.21
2022-08-02T09:49:09.112Z,58.65
2022-08-02T09:51:40.321Z,59.86
2022-08-02T09:54:12.944Z,57.77
2022-08-02T09:56:43.581Z,58.45
2022-08-02T09:59:11.885Z,58.47
2022-08-02T10:01:48.413Z,58.79
2022-08-02T10:04:24.623Z,58.27
2022-08-02T10:06:54.583Z,57.22
2022-08-02T10:09:24.133Z,55.57
2022-08-02T10:11:52.595Z,54.19
2022-08-02T10:14:21.605Z,54.89
2022-08-02T10:16:49.811Z,53.60
2022-08-02T10:19:17.900Z,54.27
2022-08-02T10:22:07.407Z,55.91
2022-08-02T10:24:39.535Z,55.14
2022-08-02T10:27:18.363Z,54.70
2022-08-02T10:29:53.624Z,53.81
2022-08-02T10:32:27.633Z,53.03
2022-08-02T10:34:58.747Z,54.15
2022-08-02T10:37:47.450Z,53.23
2022-08-02T10:40:24.190Z,53.22
2022-08-02T10:42:54.406Z,51.09
2022-08-02T10:45:23.651Z,54.08
2022-08-02T10:48:02.914Z,50.70
2022-08-02T10:50:53.631Z,52.25
2022-08-02T10:53:29.907Z,52.75
2022-08-02T10:56:03.408Z,53.26
2022-08-02T10:58:32.715Z,50.94
2022-08-02T11:01:05.592Z,51.15
2022-08-02T11:03:41.940Z,51.33
2022-08-02T11:06:24.972Z,50.71
2022-08-02T11:09:32.418Z,52.68
2022-08-02T11:12:05.193Z,52.05
2022-08-02T11:14:34.378Z,50.81
2022-08-02T11:17:11.361Z,51.56
2022-08-02T11:20:16.162Z,50.76
2022-08-02T11:22:45.420Z,51.52
2022-08-02T11:26:02.186Z,51.04
2022-08-02T11:28:25.974Z,50.67
2022-08-02T11:30:58.983Z,51.39
2022-08-02T11:33:32.171Z,48.94
2022-08-02T11:36:04.654Z,52.06
2022-08-02T11:38:32.754Z,49.13
2022-08-02T11:41:09.594Z,52.53
2022-08-02T11:43:39.828Z,51.18
2022-08-02T11:46:14.195Z,49.38
2022-08-02T11:48:43.917Z,50.78
2022-08-02T11:51:13.771Z,51.93
2022-08-02T11:53:50.215Z,49.87
2022-08-02T11:56:24.145Z,49.95
2022-08-02T11:59:04.655Z,49.94
2022-08-02T12:01:36.923Z,50.42
2022-08-02T12:04:18.702Z,49.10
2022-08-02T12:06:57.883Z,48.77
2022-08-02T12:09:27.941Z,47.01
2022-08-02T12:11:57.757Z,48.83
2022-08-02T12:14:29.238Z,47.29
2022-08-02T12:17:15.218Z,44.36
2022-08-02T12:19:43.802Z,47.32
2022-08-02T12:22:17.749Z,46.56
2022-08-02T12:24:48.153Z,46.25
2022-08-02T12:27:33.862Z,45.03
2022-08-02T12:30:07.320Z,45.02
2022-08-02T12:32:36.043Z,47.14
2022-08-02T12:35:08.258Z,44.97
2022-08-02T12:37:37.569Z,44.93
2022-08-02T12:40:25.731Z,45.74
2022-08-02T12:42:56.946Z,47.52
2022-08-02T12:45:27.369Z,46.84
2022-08-02T12:48:07.455Z,44.91
2022-08-02T12:50:37.594Z,45.81
2022-08-02T12:53:07.646Z,44.88
2022-08-02T12:56:01.129Z,45.72
2022-08-02T12:58:26.830Z,45.59
2022-08-02T13:00:57.869Z,46.64
2022-08-02T13:04:09.897Z,45.91
2022-08-02T13:06:44.059Z,45.21
2022-08-02T13:09:15.855Z,43.61
2022-08-02T13:11:44.532Z,45.23
2022-08-02T13:14:14.097Z,43.91
2022-08-02T13:16:47.438Z,45.44
2022-08-02T13:19:16.279Z,46.07
2022-08-02T13:22:02.156Z,44.17
2022-08-02T13:24:41.080Z,46.32
2022-08-02T13:27:21.716Z,44.20
2022-08-02T13:29:49.827Z,43.10
2022-08-02T13:32:19.631Z,43.03
2022-08-02T13:34:48.162Z,41.08
2022-08-02T13:37:16.868Z,39.42
2022-08-02T13:40:00.467Z,39.74
2022-08-02T13:42:33.296Z,40.45
2022-08-02T13:45:12.450Z,40.78
2022-08-02T13:48:04.825Z,39.94
2022-08-02T13:50:32.533Z,41.42
2022-08-02T13:53:00.639Z,39.74
2022-08-02T13:55:29.123Z,39.46
2022-08-02T13:57:57.369Z,40.82
2022-08-02T14:00:35.049Z,38.61
2022-08-02T14:03:07.122Z,39.62
2022-08-02T14:05:46.816Z,40.50
2022-08-02T14:08:19.213Z,39.04
2022-08-02T14:10:47.927Z,39.79
2022-08-02T14:13:16.562Z,37.94
2022-08-02T14:15:44.883Z,39.82
2022-08-02T14:18:15.314Z,40.61
2022-08-02T14:20:43.963Z,35.70
2022-08-02T14:23:12.175Z,41.10
2022-08-02T14:25:40.332Z,36.47
2022-08-02T14:28:08.631Z,38.35
2022-08-02T14:30:36.750Z,36.05
2022-08-02T14:33:05.102Z,37.60
2022-08-02T14:35:34.832Z,39.54
2022-08-02T14:38:02.908Z,39.29
2022-08-02T14:40:32.050Z,38.65
2022-08-02T14:43:01.057Z,37.29
2022-08-02T14:45:36.978Z,32.71
2022-08-02T14:48:11.421Z,31.79
2022-08-02T14:50:41.132Z,31.93
2022-08-02T14:53:12.817Z,36.39
2022-08-02T14:55:42.697Z,33.03
2022-08-02T14:58:11.334Z,35.85
2022-08-02T15:00:41.504Z,32.50
2022-08-02T15:03:10.687Z,31.50
2022-08-02T15:05:40.803Z,36.86
2022-08-02T15:08:08.938Z,34.67
2022-08-02T15:10:37.212Z,35.70
2022-08-02T15:13:05.499Z,33.76
2022-08-02T15:15:42.209Z,34.38
2022-08-02T15:18:12.919Z,33.79
2022-08-02T15:20:45.392Z,34.63
2022-08-02T15:23:37.307Z,35.41
2022-08-02T15:26:07.360Z,35.03
2022-08-02T15:28:35.635Z,34.44
2022-08-02T15:31:03.924Z,33.45
2022-08-02T15:33:32.096Z,33.44
2022-08-02T15:36:01.651Z,33.74
2022-08-02T15:38:29.850Z,34.42
2022-08-02T15:40:58.026Z,34.28
2022-08-02T15:43:26.325Z,32.86
2022-08-02T15:45:54.487Z,33.24
2022-08-02T15:48:22.570Z,34.11
2022-08-02T15:50:50.656Z,32.98
2022-08-02T15:53:20.145Z,32.59
2022-08-02T15:56:05.128Z,33.27
2022-08-02T15:58:34.785Z,31.85
2022-08-02T16:01:12.570Z,31.59
2022-08-02T16:03:40.711Z,32.23
2022-08-02T16:06:08.860Z,30.46
2022-08-02T16:08:38.358Z,32.92
2022-08-02T16:11:13.400Z,32.43
2022-08-02T16:13:56.746Z,30.79
2022-08-02T16:16:26.659Z,30.24
2022-08-02T16:18:55.178Z,31.46
2022-08-02T16:21:24.654Z,30.77
2022-08-02T16:24:01.790Z,30.98
2022-08-02T16:26:31.768Z,30.58
2022-08-02T16:29:00.377Z,31.08
2022-08-02T16:31:28.591Z,30.73
2022-08-02T16:33:57.408Z,32.08
2022-08-02T16:36:26.232Z,30.51
2022-08-02T16:38:56.024Z,32.02
2022-08-02T16:41:24.270Z,31.21
2022-08-02T16:44:12.339Z,29.24
2022-08-02T16:46:40.410Z,30.49
2022-08-02T16:50:05.986Z,29.58
2022-08-02T16:52:01.513Z,30.25
2022-08-02T16:54:32.015Z,30.60
2022-08-02T16:57:00.138Z,31.35
2022-08-02T16:59:34.030Z,31.01
2022-08-02T17:02:15.195Z,29.61
2022-08-02T17:04:46.701Z,29.60
2022-08-02T17:10:09.106Z,31.69
2022-08-02T17:12:38.452Z,31.49
2022-08-02T17:16:16.702Z,31.06
2022-08-02T17:17:55.672Z,30.69
2022-08-02T17:20:24.430Z,31.58
2022-08-02T17:22:53.222Z,31.39
2022-08-02T17:25:24.675Z,30.00
2022-08-02T17:27:55.585Z,31.26
2022-08-02T17:30:26.914Z,31.74
2022-08-02T17:32:57.646Z,31.92
2022-08-02T17:35:43.931Z,32.87
2022-08-02T17:38:18.086Z,32.93
2022-08-02T17:40:56.231Z,33.06
2022-08-02T17:43:29.145Z,32.46
2022-08-02T17:46:12.888Z,33.60
2022-08-02T17:49:00.966Z,34.06
2022-08-02T17:52:15.897Z,34.07
2022-08-02T17:54:19.833Z,33.92
2022-08-02T17:56:50.461Z,34.41
2022-08-02T17:59:31.141Z,34.38
2022-08-02T18:02:11.332Z,35.23
2022-08-02T18:04:39.543Z,35.28
2022-08-02T18:07:10.368Z,35.37
2022-08-02T18:09:43.394Z,35.63
2022-08-02T18:12:14.691Z,35.82
2022-08-02T18:14:49.145Z,36.06
2022-08-02T18:17:42.295Z,36.14
2022-08-02T18:20:11.633Z,36.33
2022-08-02T18:22:39.870Z,35.96
2022-08-02T18:25:11.286Z,36.13
2022-08-02T18:27:47.903Z,36.30
2022-08-02T18:30:17.690Z,36.47
2022-08-02T18:33:54.350Z,36.25
2022-08-02T18:35:44.460Z,36.60
2022-08-02T18:38:12.565Z,36.47
2022-08-02T18:40:40.715Z,36.29
2022-08-02T18:43:10.985Z,36.94
2022-08-02T18:46:06.593Z,37.01
2022-08-02T18:48:30.577Z,37.41
2022-08-02T18:50:58.895Z,37.67
2022-08-02T18:53:28.180Z,37.43
2022-08-02T18:56:09.765Z,37.82
2022-08-02T18:58:50.004Z,37.88
2022-08-02T19:01:32.772Z,39.33
2022-08-02T19:04:04.143Z,39.41
2022-08-02T19:06:32.593Z,40.00
2022-08-02T19:09:11.109Z,40.56
2022-08-02T19:11:48.354Z,41.22
2022-08-02T19:14:27.311Z,41.61
2022-08-02T19:16:58.139Z,41.86
2022-08-02T19:19:29.195Z,42.11
2022-08-02T19:22:16.587Z,42.51
2022-08-02T19:24:47.235Z,44.02
2022-08-02T19:27:20.665Z,44.61
2022-08-02T19:29:55.655Z,44.44
2022-08-02T19:32:42.887Z,44.85
2022-08-02T19:38:12.344Z,45.07
2022-08-02T19:40:42.235Z,45.11
2022-08-02T19:44:26.075Z,45.89
2022-08-02T19:46:02.391Z,46.66
2022-08-02T19:48:30.815Z,47.47
2022-08-02T19:51:00.678Z,48.15
2022-08-02T19:53:47.520Z,47.96
2022-08-02T19:56:24.863Z,47.66
2022-08-02T19:58:54.756Z,47.94
2022-08-02T20:01:36.585Z,49.05
2022-08-02T20:04:07.649Z,49.24
2022-08-02T20:06:45.153Z,49.32
2022-08-02T20:09:16.600Z,49.53
2022-08-02T20:11:45.469Z,49.34
2022-08-02T20:14:13.550Z,49.37
2022-08-02T20:16:43.042Z,49.52
2022-08-02T20:19:14.151Z,50.30
2022-08-02T20:21:50.525Z,50.33
2022-08-02T20:24:26.475Z,51.20
2022-08-02T20:26:55.021Z,51.05
2022-08-02T20:29:43.197Z,51.83
2022-08-02T20:32:14.752Z,51.64
2022-08-02T20:34:43.310Z,51.94
2022-08-02T20:38:00.381Z,52.19
2022-08-02T20:40:06.935Z,51.89
2022-08-02T20:42:35.407Z,52.33
2022-08-02T20:45:03.586Z,51.31
2022-08-02T20:47:39.312Z,51.61
2022-08-02T20:50:30.279Z,52.14
2022-08-02T20:52:59.959Z,53.51
2022-08-02T20:55:30.834Z,52.89
2022-08-02T20:58:01.735Z,53.67
2022-08-02T21:00:31.805Z,53.14
2022-08-02T21:03:02.682Z,52.94
2022-08-02T21:05:43.754Z,54.16
2022-08-02T21:08:21.709Z,54.66
2022-08-02T21:13:46.429Z,54.22
2022-08-02T21:16:19.165Z,54.55
2022-08-02T21:18:55.832Z,54.09
2022-08-02T21:21:29.535Z,54.35
2022-08-02T21:23:58.828Z,53.80
2022-08-02T21:26:30.777Z,54.36
2022-08-02T21:29:01.046Z,53.94
2022-08-02T21:31:31.988Z,55.04
2022-08-02T21:34:21.686Z,54.37
2022-08-02T21:36:53.833Z,54.81
2022-08-02T21:39:21.912Z,55.60
2022-08-02T21:41:50.146Z,56.26
2022-08-02T21:44:19.339Z,56.42
2022-08-02T21:46:49.522Z,56.76
2022-08-02T21:49:20.669Z,56.64
2022-08-02T21:51:50.300Z,57.08
2022-08-02T21:54:21.340Z,57.26
2022-08-02T21:56:52.046Z,57.10
2022-08-02T21:59:26.239Z,56.98
2022-08-02T22:01:56.446Z,58.05
2022-08-02T22:04:26.701Z,58.41
2022-08-02T22:06:55.348Z,59.18
2022-08-02T22:09:43.122Z,59.31
2022-08-02T22:15:00.935Z,60.13
2022-08-02T22:17:50.598Z,60.29
2022-08-02T22:20:20.800Z,60.10
2022-08-02T22:22:50.399Z,60.35
2022-08-02T22:25:31.399Z,60.80
2022-08-02T22:28:35.595Z,59.95
2022-08-02T22:30:57.102Z,59.65
2022-08-02T22:33:47.121Z,59.24
2022-08-02T22:36:31.520Z,60.51
2022-08-02T22:39:00.314Z,59.93
2022-08-02T22:42:01.667Z,59.92
2022-08-02T22:44:18.561Z,59.46
2022-08-02T22:46:47.224Z,59.40
2022-08-02T22:49:38.595Z,59.59
2022-08-02T22:52:08.565Z,59.70
2022-08-02T22:54:38.944Z,60.77
2022-08-02T22:57:11.398Z,60.45
2022-08-02T22:58:50.120Z,30.53
2022-08-02T22:58:52.376Z,44.44
2022-08-02T22:59:11.342Z,54.00
2022-08-02T22:59:40.819Z,60.14
2022-08-02T23:02:09.849Z,59.90
2022-08-02T23:04:38.507Z,60.17
2022-08-02T23:07:08.373Z,61.18
2022-08-02T23:09:36.514Z,60.02
2022-08-02T23:12:05.470Z,62.17
2022-08-02T23:14:33.649Z,62.15
2022-08-02T23:17:19.369Z,61.96
2022-08-02T23:20:13.281Z,61.02
2022-08-02T23:22:43.285Z,61.17
2022-08-02T23:25:11.368Z,61.33
2022-08-02T23:27:39.579Z,62.25
2022-08-02T23:30:53.420Z,63.31
2022-08-02T23:33:21.530Z,62.63
2022-08-02T23:35:49.635Z,63.11
2022-08-02T23:38:19.115Z,62.98
2022-08-02T23:40:47.165Z,63.25
2022-08-02T23:43:18.988Z,62.53
2022-08-02T23:45:47.025Z,63.14
2022-08-02T23:48:15.168Z,63.49
2022-08-02T23:50:43.333Z,63.60
2022-08-02T23:53:11.475Z,62.92
2022-08-02T23:55:41.244Z,63.63
2022-08-02T23:58:09.390Z,63.42
